Time;durP1;ratioP1;P1;durP2;ratioP2;P2;SDS_P1;SDS_P2;PMS_P1;PMS_P2;Temp;Humidity;BMP_temperature;BMP_pressure;BME280_temperature;BME280_humidity;BME280_pressure;Samples;Min_cycle;Max_cycle;Signal;HPM_P1;HPM_P2
2020/12/27 00:01:13;;;;;;;;;;;0.90;95.70;;;;;;4731633;30;19942;-74
2020/12/27 00:03:41;;;;;;;;;;;0.90;96.30;;;;;;4733346;30;20028;-74
2020/12/27 00:06:06;;;;;;;;;;;0.70;96.40;;;;;;4735128;30;19922;-73
2020/12/27 00:08:32;;;;;;;;;;;0.60;97.10;;;;;;4735086;30;20280;-73
2020/12/27 00:10:58;;;;;;;;;;;0.60;96.90;;;;;;4734576;30;19992;-74
2020/12/27 00:13:23;;;;;;;;;;;0.70;96.60;;;;;;4731971;30;20348;-73
2020/12/27 00:15:49;;;;;;;;;;;0.90;95.80;;;;;;4735916;30;19921;-74
2020/12/27 00:18:14;;;;;;;;;;;0.80;96.00;;;;;;4752290;30;19918;-74
2020/12/27 00:20:40;;;;;;;;;;;0.70;96.70;;;;;;4737490;30;19921;-74
2020/12/27 00:23:06;;;;;;;;;;;0.80;96.70;;;;;;4734761;30;19918;-74
2020/12/27 00:25:32;;;;;;;;;;;0.90;96.00;;;;;;4733865;30;19915;-74
2020/12/27 00:27:58;;;;;;;;;;;0.90;96.50;;;;;;4734963;30;20390;-74
2020/12/27 00:30:23;;;;;;;;;;;1.00;96.30;;;;;;4734667;30;19922;-74
2020/12/27 00:32:49;;;;;;;;;;;1.00;96.40;;;;;;4747677;30;19914;-74
2020/12/27 00:35:14;;;;;;;;;;;0.90;96.40;;;;;;4745760;30;20382;-74
2020/12/27 00:37:40;;;;;;;;;;;0.70;96.60;;;;;;4722605;30;19997;-73
2020/12/27 00:40:06;;;;;;;;;;;0.80;96.60;;;;;;4725591;30;19925;-74
2020/12/27 00:42:31;;;;;;;;;;;1.10;96.30;;;;;;4733754;30;20007;-74
2020/12/27 00:44:57;;;;;;;;;;;1.00;95.90;;;;;;4735715;30;20427;-73
2020/12/27 00:47:23;;;;;;;;;;;1.00;96.20;;;;;;4737630;30;20453;-74
2020/12/27 00:49:48;;;;;;;;;;;1.00;95.90;;;;;;4736717;30;19932;-73
2020/12/27 00:52:14;;;;;;;;;;;1.00;95.40;;;;;;4730897;30;19923;-74
2020/12/27 00:54:40;;;;;;;;;;;1.10;95.20;;;;;;4731091;30;19926;-74
2020/12/27 00:57:05;;;;;;;;;;;1.20;94.90;;;;;;4731487;30;19915;-74
2020/12/27 00:59:31;;;;;;;;;;;1.10;95.60;;;;;;4733432;30;19993;-74
2020/12/27 01:01:56;;;;;;;;;;;1.10;95.50;;;;;;4737275;30;19919;-74
2020/12/27 01:04:22;;;;;;;;;;;1.00;95.70;;;;;;4733323;30;19921;-73
2020/12/27 01:06:48;;;;;;;;;;;1.10;95.30;;;;;;4738380;30;19914;-74
2020/12/27 01:09:14;;;;;;;;;;;0.90;95.80;;;;;;4732203;30;19919;-74
2020/12/27 01:11:40;;;;;;;;;;;1.10;94.90;;;;;;4727643;30;19918;-74
2020/12/27 01:14:06;;;;;;;;;;;1.10;95.40;;;;;;4719328;30;20356;-74
2020/12/27 01:16:31;;;;;;;;;;;0.90;96.30;;;;;;4724741;30;20397;-74
2020/12/27 01:18:57;;;;;;;;;;;0.70;96.60;;;;;;4724189;30;19964;-74
2020/12/27 01:21:27;;;;;;;;;;;0.50;97.30;;;;;;4728131;30;20001;-74
2020/12/27 01:23:53;;;;;;;;;;;0.50;97.90;;;;;;4727344;30;19922;-74
2020/12/27 01:26:26;;;;;;;;;;;0.80;96.00;;;;;;4719126;30;19919;-74
2020/12/27 01:28:52;;;;;;;;;;;1.10;95.60;;;;;;4718813;30;19919;-74
2020/12/27 01:31:21;;;;;;;;;;;1.00;96.10;;;;;;4719618;30;20292;-74
2020/12/27 01:33:47;;;;;;;;;;;1.10;95.50;;;;;;4718795;30;19918;-74
2020/12/27 01:36:12;;;;;;;;;;;1.20;95.40;;;;;;4719094;30;19915;-74
2020/12/27 01:38:38;;;;;;;;;;;1.20;95.60;;;;;;4721083;30;19915;-73
2020/12/27 01:41:04;;;;;;;;;;;1.10;95.00;;;;;;4718496;30;19915;-74
2020/12/27 01:43:29;;;;;;;;;;;0.90;95.70;;;;;;4718581;30;19921;-74
2020/12/27 01:45:55;;;;;;;;;;;0.80;96.20;;;;;;4728510;30;19914;-74
2020/12/27 01:48:22;;;;;;;;;;;1.10;95.60;;;;;;4718105;30;21668;-74
2020/12/27 01:50:48;;;;;;;;;;;0.90;95.70;;;;;;4733880;30;19919;-74
2020/12/27 01:53:14;;;;;;;;;;;1.00;96.10;;;;;;4735913;30;19964;-74
2020/12/27 01:55:39;;;;;;;;;;;0.70;96.70;;;;;;4735345;30;19922;-74
2020/12/27 01:58:08;;;;;;;;;;;0.50;97.60;;;;;;4735376;30;19920;-73
2020/12/27 02:00:34;;;;;;;;;;;0.60;97.60;;;;;;4718496;30;19982;-74
2020/12/27 02:03:00;;;;;;;;;;;0.50;98.30;;;;;;4719082;30;19942;-74
2020/12/27 02:05:25;;;;;;;;;;;0.40;98.30;;;;;;4718684;30;19915;-73
2020/12/27 02:07:51;;;;;;;;;;;0.30;98.20;;;;;;4718089;30;19918;-74
2020/12/27 02:10:17;;;;;;;;;;;0.40;98.30;;;;;;4717315;30;19932;-74
2020/12/27 02:12:42;;;;;;;;;;;0.20;98.70;;;;;;4717932;30;20396;-74
2020/12/27 02:15:08;;;;;;;;;;;0.20;99.10;;;;;;4714849;30;19922;-74
2020/12/27 02:17:34;;;;;;;;;;;0.10;99.90;;;;;;4713569;30;20005;-74
2020/12/27 02:19:59;;;;;;;;;;;0.20;99.90;;;;;;4720450;30;19930;-73
2020/12/27 02:22:25;;;;;;;;;;;0.10;99.90;;;;;;4714599;30;19915;-74
2020/12/27 02:24:50;;;;;;;;;;;0.00;99.90;;;;;;4712832;30;20384;-74
2020/12/27 02:27:16;;;;;;;;;;;0.00;99.90;;;;;;4712390;30;19922;-74
2020/12/27 02:29:42;;;;;;;;;;;0.00;99.90;;;;;;4719840;30;21405;-74
2020/12/27 02:32:07;;;;;;;;;;;0.00;99.90;;;;;;4727167;30;19926;-74
2020/12/27 02:34:33;;;;;;;;;;;-0.20;99.90;;;;;;4722761;30;19914;-74
2020/12/27 02:36:59;;;;;;;;;;;-0.20;99.90;;;;;;4719390;30;19965;-74
2020/12/27 02:39:24;;;;;;;;;;;-0.30;99.90;;;;;;4713271;30;19922;-74
2020/12/27 02:41:50;;;;;;;;;;;-0.40;99.90;;;;;;4717607;30;20013;-74
2020/12/27 02:44:16;;;;;;;;;;;-0.30;99.90;;;;;;4717411;30;20453;-74
2020/12/27 02:46:41;;;;;;;;;;;-0.20;99.90;;;;;;4717351;30;19921;-74
2020/12/27 02:49:07;;;;;;;;;;;-0.10;99.90;;;;;;4720063;30;19919;-74
2020/12/27 02:51:33;;;;;;;;;;;0.00;99.90;;;;;;4735248;30;19944;-74
2020/12/27 02:53:58;;;;;;;;;;;0.10;99.90;;;;;;4733433;30;20377;-74
2020/12/27 02:56:25;;;;;;;;;;;0.30;99.90;;;;;;4735167;30;19949;-73
2020/12/27 02:58:53;;;;;;;;;;;0.30;99.90;;;;;;4723661;30;19949;-73
2020/12/27 03:01:19;;;;;;;;;;;0.30;99.90;;;;;;4715637;30;19998;-74
2020/12/27 03:03:45;;;;;;;;;;;0.30;99.90;;;;;;4725118;30;20008;-74
2020/12/27 03:06:11;;;;;;;;;;;0.20;99.90;;;;;;4734684;30;20351;-74
2020/12/27 03:08:36;;;;;;;;;;;0.20;99.90;;;;;;4724678;30;19923;-74
2020/12/27 03:11:02;;;;;;;;;;;0.10;99.90;;;;;;4717299;30;19919;-74
2020/12/27 03:13:28;;;;;;;;;;;0.10;99.90;;;;;;4716877;30;19985;-74
2020/12/27 03:15:54;;;;;;;;;;;0.00;99.90;;;;;;4717476;30;19921;-73
2020/12/27 03:18:21;;;;;;;;;;;0.10;99.90;;;;;;4721261;30;19971;-73
2020/12/27 03:20:47;;;;;;;;;;;0.10;99.90;;;;;;4734529;30;19919;-74
2020/12/27 03:23:12;;;;;;;;;;;0.00;99.90;;;;;;4734425;30;19915;-74
2020/12/27 03:25:38;;;;;;;;;;;0.00;99.90;;;;;;4734804;30;20476;-74
2020/12/27 03:28:04;;;;;;;;;;;0.00;99.90;;;;;;4729974;30;19921;-74
2020/12/27 03:30:30;;;;;;;;;;;0.10;99.90;;;;;;4717154;30;19922;-74
2020/12/27 03:32:56;;;;;;;;;;;0.10;99.90;;;;;;4717394;30;19922;-74
2020/12/27 03:35:21;;;;;;;;;;;0.00;99.90;;;;;;4715741;30;19969;-74
2020/12/27 03:37:47;;;;;;;;;;;-0.10;99.90;;;;;;4722218;30;19955;-74
2020/12/27 03:40:13;;;;;;;;;;;-0.10;99.90;;;;;;4717022;30;19942;-73
2020/12/27 03:42:39;;;;;;;;;;;-0.10;99.90;;;;;;4729479;30;20008;-74
2020/12/27 03:45:05;;;;;;;;;;;0.00;99.90;;;;;;4734510;30;19914;-73
2020/12/27 03:47:31;;;;;;;;;;;0.00;99.90;;;;;;4733869;30;19972;-74
2020/12/27 03:49:56;;;;;;;;;;;0.00;99.90;;;;;;4717096;30;19934;-73
2020/12/27 03:52:22;;;;;;;;;;;0.00;99.90;;;;;;4716846;30;20021;-73
2020/12/27 03:54:47;;;;;;;;;;;-0.10;99.90;;;;;;4731607;30;19923;-74
2020/12/27 03:57:13;;;;;;;;;;;0.00;99.90;;;;;;4734133;30;20009;-74
2020/12/27 03:59:39;;;;;;;;;;;0.00;99.90;;;;;;4718888;30;19914;-74
2020/12/27 04:02:05;;;;;;;;;;;0.00;99.90;;;;;;4716723;30;19996;-74
2020/12/27 04:04:30;;;;;;;;;;;-0.10;99.90;;;;;;4716296;30;19922;-74
2020/12/27 04:06:56;;;;;;;;;;;-0.10;99.90;;;;;;4716545;30;19919;-74
2020/12/27 04:09:22;;;;;;;;;;;-0.20;99.90;;;;;;4718601;30;20379;-74
2020/12/27 04:11:48;;;;;;;;;;;-0.20;99.90;;;;;;4716950;30;19927;-74
2020/12/27 04:14:13;;;;;;;;;;;-0.30;99.90;;;;;;4735988;30;20385;-74
2020/12/27 04:16:39;;;;;;;;;;;-0.20;99.90;;;;;;4737110;30;19921;-74
2020/12/27 04:19:05;;;;;;;;;;;-0.20;99.90;;;;;;4726883;30;19915;-74
2020/12/27 04:21:30;;;;;;;;;;;-0.30;99.90;;;;;;4725785;30;19915;-74
2020/12/27 04:23:56;;;;;;;;;;;-0.10;99.90;;;;;;4735773;30;19918;-74
2020/12/27 04:26:22;;;;;;;;;;;-0.10;99.90;;;;;;4719949;30;20279;-74
2020/12/27 04:28:48;;;;;;;;;;;0.00;99.90;;;;;;4720689;30;20013;-74
2020/12/27 04:31:14;;;;;;;;;;;0.10;99.90;;;;;;4737088;30;19925;-74
2020/12/27 04:33:40;;;;;;;;;;;0.00;99.90;;;;;;4737510;30;20381;-73
2020/12/27 04:36:06;;;;;;;;;;;0.10;99.90;;;;;;4737189;30;19915;-73
2020/12/27 04:38:32;;;;;;;;;;;0.00;99.90;;;;;;4734155;30;20337;-74
2020/12/27 04:40:58;;;;;;;;;;;0.00;99.90;;;;;;4735741;30;19914;-73
2020/12/27 04:43:24;;;;;;;;;;;-0.10;99.90;;;;;;4737434;30;19921;-74
2020/12/27 04:45:53;;;;;;;;;;;-0.10;99.90;;;;;;4736707;30;19914;-74
2020/12/27 04:48:20;;;;;;;;;;;-0.10;99.90;;;;;;4731869;30;19915;-74
2020/12/27 04:50:46;;;;;;;;;;;-0.20;99.90;;;;;;4719386;30;20368;-74
2020/12/27 04:53:12;;;;;;;;;;;-0.10;99.90;;;;;;4719129;30;20379;-74
2020/12/27 04:55:38;;;;;;;;;;;-0.20;99.90;;;;;;4720107;30;19922;-73
2020/12/27 04:58:07;;;;;;;;;;;-0.10;99.90;;;;;;4719216;30;19933;-74
2020/12/27 05:00:32;;;;;;;;;;;-0.10;99.90;;;;;;4733077;30;19914;-73
2020/12/27 05:02:59;;;;;;;;;;;0.00;99.90;;;;;;4736795;30;19922;-73
2020/12/27 05:05:25;;;;;;;;;;;-0.10;99.90;;;;;;4736481;30;19914;-74
2020/12/27 05:07:52;;;;;;;;;;;-0.10;99.90;;;;;;4735798;30;20044;-74
2020/12/27 05:10:18;;;;;;;;;;;-0.10;99.90;;;;;;4719333;30;19918;-73
2020/12/27 05:12:43;;;;;;;;;;;-0.30;99.90;;;;;;4719293;30;19945;-74
2020/12/27 05:15:09;;;;;;;;;;;-0.40;99.90;;;;;;4718268;30;20390;-74
2020/12/27 05:17:35;;;;;;;;;;;-0.40;99.90;;;;;;4732571;30;19931;-73
2020/12/27 05:20:08;;;;;;;;;;;-0.30;99.90;;;;;;4720566;30;20304;-74
2020/12/27 05:22:35;;;;;;;;;;;-0.30;99.90;;;;;;4718888;30;20005;-74
2020/12/27 05:25:01;;;;;;;;;;;-0.50;99.90;;;;;;4718620;30;19947;-74
2020/12/27 05:27:28;;;;;;;;;;;-0.60;99.90;;;;;;4719345;30;19954;-74
2020/12/27 05:29:54;;;;;;;;;;;-0.60;99.90;;;;;;4727563;30;19925;-74
2020/12/27 05:32:19;;;;;;;;;;;-0.70;99.90;;;;;;4736370;30;19926;-74
2020/12/27 05:34:45;;;;;;;;;;;-0.80;99.90;;;;;;4736096;30;19945;-73
2020/12/27 05:37:16;;;;;;;;;;;-0.70;99.90;;;;;;4736953;30;20363;-74
2020/12/27 05:39:44;;;;;;;;;;;-0.70;99.90;;;;;;4723299;30;19921;-74
2020/12/27 05:42:09;;;;;;;;;;;-0.60;99.90;;;;;;4721576;30;19950;-73
2020/12/27 05:44:35;;;;;;;;;;;-0.70;99.90;;;;;;4718674;30;19918;-74
2020/12/27 05:47:01;;;;;;;;;;;-0.80;99.90;;;;;;4734562;30;19922;-74
2020/12/27 05:49:27;;;;;;;;;;;-0.90;99.90;;;;;;4735646;30;19930;-74
2020/12/27 05:51:53;;;;;;;;;;;-1.00;99.90;;;;;;4735917;30;19946;-74
2020/12/27 05:54:25;;;;;;;;;;;-1.10;99.90;;;;;;4732182;30;19923;-74
2020/12/27 05:56:57;;;;;;;;;;;-1.10;99.90;;;;;;4718800;30;19915;-74
2020/12/27 05:59:26;;;;;;;;;;;-1.10;99.90;;;;;;4723291;30;19996;-73
2020/12/27 06:01:54;;;;;;;;;;;-1.30;99.90;;;;;;4734066;30;19945;-74
2020/12/27 06:04:38;;;;;;;;;;;-1.30;99.90;;;;;;4719915;30;19923;-74
2020/12/27 06:07:05;;;;;;;;;;;-1.30;99.90;;;;;;4735289;30;19940;-74
2020/12/27 06:09:49;;;;;;;;;;;-1.40;99.90;;;;;;4731546;30;19919;-74
2020/12/27 06:12:18;;;;;;;;;;;-1.40;99.90;;;;;;4718551;30;19919;-74
2020/12/27 06:14:55;;;;;;;;;;;-1.40;99.90;;;;;;4724331;30;19915;-74
2020/12/27 06:17:30;;;;;;;;;;;-1.30;99.90;;;;;;4735294;30;19941;-73
2020/12/27 06:19:56;;;;;;;;;;;-1.40;99.90;;;;;;4734622;30;19961;-74
2020/12/27 06:22:29;;;;;;;;;;;-1.30;99.90;;;;;;4717196;30;19915;-74
2020/12/27 06:24:59;;;;;;;;;;;-1.30;99.90;;;;;;4717839;30;20438;-73
2020/12/27 06:27:26;;;;;;;;;;;-1.40;99.90;;;;;;4718193;30;19919;-74
2020/12/27 06:29:54;;;;;;;;;;;-1.40;99.90;;;;;;4719329;30;19918;-74
2020/12/27 06:32:24;;;;;;;;;;;-1.20;99.90;;;;;;4735381;30;19922;-74
2020/12/27 06:34:50;;;;;;;;;;;-1.20;99.90;;;;;;4727124;30;19918;-74
2020/12/27 06:37:16;;;;;;;;;;;-1.20;99.90;;;;;;4717892;30;20345;-73
2020/12/27 06:39:45;;;;;;;;;;;-1.30;99.90;;;;;;4717776;30;19926;-74
2020/12/27 06:42:14;;;;;;;;;;;-1.40;99.90;;;;;;4717806;30;19914;-74
2020/12/27 06:44:43;;;;;;;;;;;-1.40;99.90;;;;;;4729200;30;19915;-74
2020/12/27 06:47:10;;;;;;;;;;;-1.50;99.90;;;;;;4717798;30;19915;-74
2020/12/27 06:49:36;;;;;;;;;;;-1.60;99.90;;;;;;4717058;30;19918;-74
2020/12/27 06:52:20;;;;;;;;;;;-1.60;99.90;;;;;;4733792;30;19925;-74
2020/12/27 06:54:49;;;;;;;;;;;-1.60;99.90;;;;;;4717836;30;19950;-74
2020/12/27 06:57:34;;;;;;;;;;;-1.70;99.90;;;;;;4717665;30;19921;-73
2020/12/27 07:00:18;;;;;;;;;;;-1.70;99.90;;;;;;4725377;30;19922;-74
2020/12/27 07:02:44;;;;;;;;;;;-1.70;99.90;;;;;;4727169;30;19914;-74
2020/12/27 07:05:10;;;;;;;;;;;-1.80;99.90;;;;;;4734604;30;19918;-74
2020/12/27 07:07:48;;;;;;;;;;;-1.70;99.90;;;;;;4731461;30;19915;-74
2020/12/27 07:10:15;;;;;;;;;;;-1.80;99.90;;;;;;4717642;30;19922;-74
2020/12/27 07:12:41;;;;;;;;;;;-1.80;99.90;;;;;;4716786;30;20013;-73
2020/12/27 07:15:10;;;;;;;;;;;-1.90;99.90;;;;;;4734438;30;20019;-73
2020/12/27 07:17:36;;;;;;;;;;;-1.90;99.90;;;;;;4733890;30;19914;-73
2020/12/27 07:20:02;;;;;;;;;;;-2.00;99.90;;;;;;4733965;30;19922;-74
2020/12/27 07:22:29;;;;;;;;;;;-1.90;99.90;;;;;;4734402;30;19915;-74
2020/12/27 07:24:59;;;;;;;;;;;-2.00;99.90;;;;;;4734067;30;20402;-74
2020/12/27 07:27:29;;;;;;;;;;;-1.90;99.90;;;;;;4727967;30;19915;-73
2020/12/27 07:29:58;;;;;;;;;;;-1.90;99.90;;;;;;4732025;30;19925;-73
2020/12/27 07:32:24;;;;;;;;;;;-2.00;99.90;;;;;;4732356;30;19925;-74
2020/12/27 07:34:51;;;;;;;;;;;-2.00;99.90;;;;;;4733678;30;20005;-74
2020/12/27 07:37:22;;;;;;;;;;;-2.00;99.90;;;;;;4733609;30;20036;-74
2020/12/27 07:39:49;;;;;;;;;;;-1.90;99.90;;;;;;4734628;30;19921;-74
2020/12/27 07:42:23;;;;;;;;;;;-1.90;99.90;;;;;;4732927;30;20455;-74
2020/12/27 07:44:48;;;;;;;;;;;-1.80;99.90;;;;;;4732331;30;19923;-74
2020/12/27 07:47:14;;;;;;;;;;;-1.80;99.90;;;;;;4720728;30;19915;-74
2020/12/27 07:49:40;;;;;;;;;;;-1.80;99.90;;;;;;4723247;30;20020;-74
2020/12/27 07:52:05;;;;;;;;;;;-1.80;99.90;;;;;;4733976;30;20016;-74
2020/12/27 07:54:31;;;;;;;;;;;-1.80;99.90;;;;;;4732771;30;19931;-74
2020/12/27 07:56:57;;;;;;;;;;;-1.80;99.90;;;;;;4734368;30;19920;-74
2020/12/27 07:59:23;;;;;;;;;;;-1.80;99.90;;;;;;4739945;30;19975;-74
2020/12/27 08:01:49;;;;;;;;;;;-1.70;99.90;;;;;;4739722;30;20359;-74
2020/12/27 08:04:15;;;;;;;;;;;-1.70;99.90;;;;;;4741080;30;19914;-74
2020/12/27 08:06:41;;;;;;;;;;;-1.60;99.90;;;;;;4746629;30;19914;-73
2020/12/27 08:09:11;;;;;;;;;;;-1.60;99.90;;;;;;4741856;30;20005;-74
2020/12/27 08:11:40;;;;;;;;;;;-1.60;99.90;;;;;;4740696;30;19929;-73
2020/12/27 08:14:07;;;;;;;;;;;-1.50;99.90;;;;;;4739113;30;19973;-74
2020/12/27 08:16:33;;;;;;;;;;;-1.50;99.90;;;;;;4742727;30;19915;-73
2020/12/27 08:19:02;;;;;;;;;;;-1.40;99.90;;;;;;4737994;30;19921;-74
2020/12/27 08:21:28;;;;;;;;;;;-1.30;99.90;;;;;;4740247;30;19918;-74
2020/12/27 08:23:57;;;;;;;;;;;-1.00;99.90;;;;;;4726121;30;20025;-73
2020/12/27 08:26:23;;;;;;;;;;;-0.90;99.90;;;;;;4739815;30;19964;-73
2020/12/27 08:28:49;;;;;;;;;;;-0.80;99.90;;;;;;4741147;30;19922;-73
2020/12/27 08:31:28;;;;;;;;;;;-0.80;99.90;;;;;;4742356;30;19930;-74
2020/12/27 08:34:04;;;;;;;;;;;-0.80;99.90;;;;;;4720745;30;19915;-74
2020/12/27 08:36:29;;;;;;;;;;;-0.80;99.90;;;;;;4715104;30;20267;-74
2020/12/27 08:38:58;;;;;;;;;;;-0.70;99.90;;;;;;4730679;30;19914;-74
2020/12/27 08:41:26;;;;;;;;;;;-0.70;99.90;;;;;;4734155;30;19914;-74
2020/12/27 08:44:04;;;;;;;;;;;-0.70;99.90;;;;;;4734027;30;19972;-74
2020/12/27 08:46:34;;;;;;;;;;;-0.50;99.90;;;;;;4733489;30;19945;-74
2020/12/27 08:49:05;;;;;;;;;;;-0.40;99.90;;;;;;4724135;30;19946;-74
2020/12/27 08:51:33;;;;;;;;;;;-0.30;99.90;;;;;;4729383;30;19925;-74
2020/12/27 08:53:59;;;;;;;;;;;-0.20;99.90;;;;;;4733348;30;19930;-74
2020/12/27 08:56:25;;;;;;;;;;;-0.30;99.90;;;;;;4734122;30;20274;-74
2020/12/27 08:58:54;;;;;;;;;;;-0.30;99.90;;;;;;4733790;30;20005;-74
2020/12/27 09:01:22;;;;;;;;;;;-0.20;99.90;;;;;;4737360;30;19914;-74
2020/12/27 09:03:48;;;;;;;;;;;-0.10;99.90;;;;;;4736634;30;19918;-74
2020/12/27 09:06:14;;;;;;;;;;;-0.20;99.90;;;;;;4736170;30;19915;-74
2020/12/27 09:08:39;;;;;;;;;;;-0.20;99.90;;;;;;4736886;30;20071;-74
2020/12/27 09:11:05;;;;;;;;;;;-0.10;99.90;;;;;;4736721;30;19975;-74
2020/12/27 09:13:37;;;;;;;;;;;0.10;99.90;;;;;;4733151;30;20088;-74
2020/12/27 09:16:03;;;;;;;;;;;0.30;99.90;;;;;;4736841;30;19949;-74
2020/12/27 09:18:30;;;;;;;;;;;0.70;99.90;;;;;;4736572;30;20346;-74
2020/12/27 09:21:14;;;;;;;;;;;0.70;99.90;;;;;;4736525;30;19914;-74
2020/12/27 09:23:39;;;;;;;;;;;1.10;99.90;;;;;;4725235;30;19914;-74
2020/12/27 09:26:09;;;;;;;;;;;1.10;99.90;;;;;;4715659;30;19921;-73
2020/12/27 09:28:39;;;;;;;;;;;1.10;99.90;;;;;;4718367;30;19977;-74
2020/12/27 09:31:05;;;;;;;;;;;1.30;99.90;;;;;;4718607;30;19919;-74
2020/12/27 09:33:35;;;;;;;;;;;1.40;99.90;;;;;;4717747;30;20006;-74
2020/12/27 09:36:01;;;;;;;;;;;1.80;99.90;;;;;;4718700;30;20008;-74
2020/12/27 09:38:29;;;;;;;;;;;1.60;99.90;;;;;;4718434;30;19925;-74
2020/12/27 09:41:24;;;;;;;;;;;1.80;99.90;;;;;;4718719;30;19922;-74
2020/12/27 09:43:58;;;;;;;;;;;2.10;99.90;;;;;;4706406;30;19919;-74
2020/12/27 09:46:42;;;;;;;;;;;1.90;99.90;;;;;;4732210;30;19914;-75
2020/12/27 09:49:18;;;;;;;;;;;2.40;99.90;;;;;;4725184;30;20335;-75
2020/12/27 09:51:44;;;;;;;;;;;2.20;99.90;;;;;;4733278;30;20386;-74
2020/12/27 09:54:09;;;;;;;;;;;2.50;99.90;;;;;;4727515;30;19922;-75
2020/12/27 09:56:42;;;;;;;;;;;2.30;99.90;;;;;;4719086;30;19921;-74
2020/12/27 09:59:08;;;;;;;;;;;2.30;99.90;;;;;;4716825;30;20294;-74
2020/12/27 10:01:33;;;;;;;;;;;2.40;99.90;;;;;;4728362;30;19922;-75
2020/12/27 10:03:59;;;;;;;;;;;2.70;99.90;;;;;;4734690;30;19949;-75
2020/12/27 10:06:24;;;;;;;;;;;3.00;99.90;;;;;;4735870;30;19922;-74
2020/12/27 10:08:50;;;;;;;;;;;3.10;99.90;;;;;;4733570;30;19919;-74
2020/12/27 10:11:16;;;;;;;;;;;2.90;99.90;;;;;;4734189;30;19952;-75
2020/12/27 10:13:41;;;;;;;;;;;3.20;99.90;;;;;;4734499;30;19990;-74
2020/12/27 10:16:07;;;;;;;;;;;3.20;99.90;;;;;;4734995;30;19952;-74
2020/12/27 10:18:33;;;;;;;;;;;3.30;99.90;;;;;;4734431;30;19963;-74
2020/12/27 10:20:58;;;;;;;;;;;3.10;99.90;;;;;;4735263;30;19921;-74
2020/12/27 10:23:24;;;;;;;;;;;3.20;99.90;;;;;;4733805;30;19979;-74
2020/12/27 10:25:49;;;;;;;;;;;3.10;99.90;;;;;;4732974;30;19922;-74
2020/12/27 10:28:15;;;;;;;;;;;3.20;99.90;;;;;;4733342;30;20295;-74
2020/12/27 10:30:41;;;;;;;;;;;3.40;99.90;;;;;;4724234;30;19929;-74
2020/12/27 10:33:06;;;;;;;;;;;3.60;99.90;;;;;;4727440;30;19999;-74
2020/12/27 10:35:32;;;;;;;;;;;3.70;98.70;;;;;;4721524;30;19941;-74
2020/12/27 10:38:01;;;;;;;;;;;3.60;98.20;;;;;;4723167;30;19945;-75
2020/12/27 10:40:26;;;;;;;;;;;3.60;98.70;;;;;;4730487;30;20324;-73
2020/12/27 10:42:52;;;;;;;;;;;3.80;98.20;;;;;;4733613;30;20044;-73
2020/12/27 10:45:17;;;;;;;;;;;3.50;97.80;;;;;;4726087;30;19923;-74
2020/12/27 10:47:43;;;;;;;;;;;3.70;98.10;;;;;;4729471;30;19921;-74
2020/12/27 10:50:09;;;;;;;;;;;3.70;97.70;;;;;;4728255;30;19922;-74
2020/12/27 10:52:34;;;;;;;;;;;3.60;97.30;;;;;;4732441;30;19922;-74
2020/12/27 10:55:00;;;;;;;;;;;3.80;97.90;;;;;;4734072;30;19927;-74
2020/12/27 10:57:26;;;;;;;;;;;3.90;97.20;;;;;;4733034;30;20370;-74
2020/12/27 10:59:51;;;;;;;;;;;4.10;97.10;;;;;;4720686;30;20367;-74
2020/12/27 11:02:17;;;;;;;;;;;4.20;95.40;;;;;;4733716;30;20009;-74
2020/12/27 11:04:42;;;;;;;;;;;4.20;95.40;;;;;;4733529;30;20356;-74
2020/12/27 11:07:08;;;;;;;;;;;4.30;94.90;;;;;;4732570;30;20005;-73
2020/12/27 11:09:34;;;;;;;;;;;4.20;94.40;;;;;;4732961;30;19969;-77
2020/12/27 11:11:59;;;;;;;;;;;4.40;93.80;;;;;;4734212;30;20352;-76
2020/12/27 11:14:25;;;;;;;;;;;4.40;93.70;;;;;;4733642;30;19915;-76
2020/12/27 11:16:51;;;;;;;;;;;4.30;93.10;;;;;;4724869;30;19918;-75
2020/12/27 11:19:16;;;;;;;;;;;4.20;92.80;;;;;;4713847;30;19919;-74
2020/12/27 11:21:45;;;;;;;;;;;4.50;92.90;;;;;;4713789;30;19914;-73
2020/12/27 11:24:11;;;;;;;;;;;4.60;92.40;;;;;;4715880;30;19914;-74
2020/12/27 11:26:37;;;;;;;;;;;4.40;93.10;;;;;;4729913;30;19976;-71
2020/12/27 11:29:02;;;;;;;;;;;4.60;93.20;;;;;;4724732;30;19925;-72
2020/12/27 11:31:28;;;;;;;;;;;4.70;92.00;;;;;;4727837;30;19981;-72
2020/12/27 11:33:54;;;;;;;;;;;4.50;92.70;;;;;;4731212;30;19914;-72
2020/12/27 11:36:19;;;;;;;;;;;4.50;92.20;;;;;;4716573;30;19972;-72
2020/12/27 11:38:45;;;;;;;;;;;4.40;91.80;;;;;;4716468;30;20001;-71
2020/12/27 11:41:11;;;;;;;;;;;4.50;92.30;;;;;;4717589;30;19987;-72
2020/12/27 11:43:37;;;;;;;;;;;4.50;92.70;;;;;;4717324;30;20447;-72
2020/12/27 11:46:03;;;;;;;;;;;4.90;93.10;;;;;;4717360;30;19985;-73
2020/12/27 11:48:28;;;;;;;;;;;4.90;92.60;;;;;;4717255;30;19960;-74
2020/12/27 11:50:54;;;;;;;;;;;5.10;92.70;;;;;;4717296;30;20303;-72
2020/12/27 11:53:20;;;;;;;;;;;5.10;92.20;;;;;;4721726;30;19987;-74
2020/12/27 11:55:46;;;;;;;;;;;5.10;92.60;;;;;;4724119;30;19965;-74
2020/12/27 11:58:11;;;;;;;;;;;5.40;92.00;;;;;;4724952;30;19915;-74
2020/12/27 12:00:37;;;;;;;;;;;5.30;91.60;;;;;;4729185;30;19919;-73
2020/12/27 12:03:03;;;;;;;;;;;5.20;91.80;;;;;;4733244;30;20374;-73
2020/12/27 12:05:28;;;;;;;;;;;5.40;92.30;;;;;;4732798;30;20346;-73
2020/12/27 12:07:54;;;;;;;;;;;5.40;91.60;;;;;;4733115;30;19922;-70
2020/12/27 12:10:20;;;;;;;;;;;5.40;92.20;;;;;;4732419;30;20298;-73
2020/12/27 12:12:45;;;;;;;;;;;5.50;91.90;;;;;;4732980;30;19918;-73
2020/12/27 12:15:11;;;;;;;;;;;5.50;91.70;;;;;;4732877;30;19972;-73
2020/12/27 12:17:37;;;;;;;;;;;5.50;91.80;;;;;;4730674;30;19977;-73
2020/12/27 12:20:03;;;;;;;;;;;5.70;91.40;;;;;;4732743;30;20410;-73
2020/12/27 12:22:28;;;;;;;;;;;5.60;91.30;;;;;;4732547;30;19964;-73
2020/12/27 12:24:54;;;;;;;;;;;5.60;91.70;;;;;;4748421;30;20331;-73
2020/12/27 12:27:19;;;;;;;;;;;5.50;92.70;;;;;;4731181;30;19918;-73
2020/12/27 12:29:45;;;;;;;;;;;5.70;92.50;;;;;;4732796;30;19919;-73
2020/12/27 12:32:11;;;;;;;;;;;5.70;91.90;;;;;;4732417;30;19918;-73
2020/12/27 12:34:36;;;;;;;;;;;5.70;91.60;;;;;;4734123;30;20306;-74
2020/12/27 12:37:03;;;;;;;;;;;5.70;91.90;;;;;;4736226;30;19915;-73
2020/12/27 12:39:29;;;;;;;;;;;5.60;91.40;;;;;;4736439;30;19922;-73
2020/12/27 12:41:56;;;;;;;;;;;5.60;90.80;;;;;;4736644;30;19918;-73
2020/12/27 12:44:22;;;;;;;;;;;5.60;90.80;;;;;;4737124;30;19914;-73
2020/12/27 12:46:47;;;;;;;;;;;5.70;91.00;;;;;;4735901;30;19915;-73
2020/12/27 12:49:13;;;;;;;;;;;5.80;91.30;;;;;;4736334;30;19925;-74
2020/12/27 12:51:38;;;;;;;;;;;5.80;90.80;;;;;;4734587;30;19945;-74
2020/12/27 12:54:04;;;;;;;;;;;5.80;90.60;;;;;;4734873;30;20386;-73
2020/12/27 12:56:30;;;;;;;;;;;5.90;91.10;;;;;;4735251;30;19914;-74
2020/12/27 12:58:55;;;;;;;;;;;5.80;90.70;;;;;;4735381;30;19918;-73
2020/12/27 13:01:21;;;;;;;;;;;5.90;91.20;;;;;;4735543;30;20444;-73
2020/12/27 13:03:47;;;;;;;;;;;6.10;90.50;;;;;;4735740;30;19919;-73
2020/12/27 13:06:13;;;;;;;;;;;6.10;90.50;;;;;;4736696;30;20294;-73
2020/12/27 13:08:38;;;;;;;;;;;6.00;90.20;;;;;;4737108;30;19915;-73
2020/12/27 13:11:04;;;;;;;;;;;5.80;90.50;;;;;;4737110;30;19918;-73
2020/12/27 13:13:30;;;;;;;;;;;5.90;91.60;;;;;;4736927;30;19922;-73
2020/12/27 13:15:56;;;;;;;;;;;5.80;91.70;;;;;;4736860;30;20318;-73
2020/12/27 13:18:22;;;;;;;;;;;5.70;91.90;;;;;;4736938;30;20275;-73
2020/12/27 13:20:47;;;;;;;;;;;5.70;92.00;;;;;;4735117;30;19925;-73
2020/12/27 13:23:13;;;;;;;;;;;5.80;92.30;;;;;;4720123;30;20339;-73
2020/12/27 13:25:38;;;;;;;;;;;5.70;92.20;;;;;;4720028;30;19915;-74
2020/12/27 13:28:04;;;;;;;;;;;5.70;91.40;;;;;;4725589;30;19964;-73
2020/12/27 13:30:30;;;;;;;;;;;5.70;91.20;;;;;;4732341;30;19922;-73
2020/12/27 13:32:55;;;;;;;;;;;5.70;91.40;;;;;;4734267;30;19925;-73
2020/12/27 13:35:21;;;;;;;;;;;5.60;91.50;;;;;;4718177;30;19915;-74
2020/12/27 13:37:46;;;;;;;;;;;5.60;90.70;;;;;;4724946;30;19925;-74
2020/12/27 13:40:12;;;;;;;;;;;5.50;90.60;;;;;;4719742;30;19919;-73
2020/12/27 13:42:38;;;;;;;;;;;5.40;90.30;;;;;;4729627;30;19918;-73
2020/12/27 13:45:05;;;;;;;;;;;5.40;91.40;;;;;;4734777;30;20363;-73
2020/12/27 13:47:30;;;;;;;;;;;5.40;91.80;;;;;;4735242;30;20536;-73
2020/12/27 13:49:56;;;;;;;;;;;5.30;90.90;;;;;;4734496;30;20013;-74
2020/12/27 13:52:22;;;;;;;;;;;5.20;90.70;;;;;;4734263;30;19926;-74
2020/12/27 13:54:47;;;;;;;;;;;5.20;91.40;;;;;;4728487;30;19926;-74
2020/12/27 13:57:13;;;;;;;;;;;5.10;91.60;;;;;;4750400;30;20396;-74
2020/12/27 13:59:40;;;;;;;;;;;5.20;91.30;;;;;;4744934;30;19922;-74
2020/12/27 14:02:06;;;;;;;;;;;5.20;90.80;;;;;;4734691;30;19915;-73
2020/12/27 14:04:32;;;;;;;;;;;5.20;90.80;;;;;;4734164;30;20409;-74
2020/12/27 14:06:58;;;;;;;;;;;5.20;90.80;;;;;;4734316;30;19925;-74
2020/12/27 14:09:24;;;;;;;;;;;5.20;90.70;;;;;;4733742;30;19924;-74
2020/12/27 14:11:50;;;;;;;;;;;5.10;90.50;;;;;;4730251;30;20010;-74
2020/12/27 14:14:15;;;;;;;;;;;5.20;90.80;;;;;;4716173;30;19915;-74
2020/12/27 14:16:42;;;;;;;;;;;5.20;90.90;;;;;;4726079;30;19914;-74
2020/12/27 14:19:08;;;;;;;;;;;5.20;91.30;;;;;;4730517;30;19927;-74
2020/12/27 14:21:34;;;;;;;;;;;5.10;90.90;;;;;;4716620;30;19973;-74
2020/12/27 14:23:59;;;;;;;;;;;5.10;91.10;;;;;;4708352;30;19976;-74